ADDS METAR Data INFO
IDs: Format: Raw Decoded Include TAF

Data at: 1319 UTC 11 Dec 2017

KDSV 111254Z AUTO 31004KT 10SM BKN039 OVC055 M02/M07 A2999 RMK AO2 SLP172 T10171067
KDSV 111154Z AUTO 31006KT 10SM OVC037 M02/M06 A2997 RMK AO2 SNE30 SLP164 P0000 60000 T10171061 11011 21017 53016
KDSV 111135Z AUTO VRB04KT 9SM FEW024 BKN031 OVC035 M02/M06 A2996 RMK AO2 SNE30 P0000 T10171056
KDSV 111054Z AUTO 30003KT 9SM -SN OVC027 M02/M05 A2995 RMK AO2 SNB03 SLP157 P0000 T10171050
KDSV 111007Z AUTO 33003KT 9SM -SN BKN024 OVC032 M02/M05 A2994 RMK AO2 SNB03 P0000 T10171050
KDSV 110954Z AUTO 00000KT 10SM BKN030 BKN036 OVC047 M02/M05 A2993 RMK AO2 SNB0859E32 SLP152 P0000 T10171050
KDSV 110854Z AUTO 00000KT 10SM OVC033 M01/M06 A2992 RMK AO2 SNE43 SLP146 P0000 60000 T10111061 53012
KDSV 110839Z AUTO 00000KT 8SM -SN OVC031 M01/M06 A2991 RMK AO2 P0000 T10111061
KDSV 110754Z AUTO 20005KT 10SM -SN OVC026 M01/M07 A2990 RMK AO2 SNB54 SLP142 P0000 T10111072
KDSV 110710Z AUTO VRB03KT 10SM OVC028 M01/M08 A2990 RMK AO2 T10111078
KDSV 110654Z AUTO 00000KT 10SM OVC030 M01/M08 A2989 RMK AO2 SLP139 T10111078
KDSV 110554Z AUTO 21008KT 10SM OVC065 M01/M08 A2988 RMK AO2 SLP135 T10111083 11006 21011 58002
KDSV 110454Z AUTO 10SM OVC075 M01/M08 A2989 RMK AO2 SLP137 T10111083 400111028
KDSV 110354Z AUTO 20006KT 10SM OVC075 M01/M09 A2989 RMK AO2 SLP137 T10061089
KDSV 110254Z AUTO 22007G15KT 10SM OVC080 M01/M08 A2989 RMK AO2 SLP137 T10061083 52002
KDSV 110154Z AUTO 21008G15KT 10SM SCT047 BKN070 OVC085 M01/M08 A2988 RMK AO2 SLP136 T10061083
KDSV 110054Z AUTO VRB06G16KT 10SM OVC080 M01/M08 A2988 RMK AO2 SLP135 T10061078
KDSV 102354Z AUTO 22004KT 10SM OVC080 M01/M07 A2988 RMK AO2 SLP135 60000 T10061072 10011 21017 51014
KDSV 102254Z AUTO 19006KT 10SM FEW040 BKN055 OVC090 00/M08 A2987 RMK AO2 SLP131 T00001078
KDSV 102154Z AUTO VRB06KT 10SM FEW042 BKN050 OVC060 00/M08 A2986 RMK AO2 SLP129 T00001083
KDSV 102054Z AUTO 20008KT 10SM FEW040 BKN070 OVC100 01/M08 A2984 RMK AO2 SLP120 60000 T00061083 53001
KDSV 101954Z AUTO 22007G18KT 10SM SCT042 SCT049 OVC065 01/M08 A2983 RMK AO2 SNE06 SLP117 P0000 T00061078
KDSV 101854Z AUTO 00000KT 7SM -SN FEW029 BKN037 OVC045 M02/M03 A2983 RMK AO2 SNE1759B13 SLP116 P0000 T10171033
KDSV 101822Z AUTO 34004KT 4SM -SN FEW024 SCT029 OVC034 M01/M04 A2983 RMK AO2 SNE1759B13 P0000 T10111039
KDSV 101815Z AUTO 32005KT 6SM -SN BKN029 OVC034 M01/M05 A2983 RMK AO2 SNE1759B13 P0000 T10061050
KDSV 101803Z AUTO 00000KT 9SM SCT027 OVC034 M01/M05 A2983 RMK AO2 SNE1759 P0000 T10061050
KDSV 101754Z AUTO 33003KT 9SM -SN BKN028 OVC035 M01/M05 A2984 RMK AO2 SNB13 SLP120 P0000 60000 T10061050 10000 21017 58012
KDSV 101744Z AUTO 00000KT 4SM -SN BKN032 OVC044 M01/M05 A2984 RMK AO2 SNB13 P0000 T10061050
KDSV 101731Z AUTO 22007KT 2 1/2SM -SN BKN028 OVC036 M01/M06 A2984 RMK AO2 VIS 1 3/4V5 SNB13 P0000 T10061056
KDSV 101654Z AUTO VRB03KT 10SM FEW030 BKN045 OVC055 00/M06 A2985 RMK AO2 SNB01E46 SLP124 P0000 T00001061
KDSV 101554Z AUTO 26009G15KT 10SM FEW027 BKN034 OVC044 00/M07 A2987 RMK AO2 SNE17 SLP132 P0000 T00001067
KDSV 101506Z AUTO VRB05KT 4SM -SN SCT025 BKN037 OVC047 M02/M05 A2987 RMK AO2 P0000 T10171050
KDSV 101454Z AUTO 34004KT 2 1/2SM -SN SCT023 OVC034 M02/M05 A2987 RMK AO2 SLP132 P0000 60000 T10171050 51020
KDSV 101354Z AUTO 30008KT 8SM -SN FEW028 BKN047 OVC055 M01/M07 A2986 RMK AO2 SNB53 SLP126 P0000 T10111072
KDSV 101254Z AUTO 29005KT 10SM FEW055 OVC075 M01/M06 A2984 RMK AO2 SNE18B34E43 SLP120 P0000 T10111061
KDSV 101226Z AUTO VRB04KT 10SM FEW025 SCT035 OVC049 M01/M05 A2983 RMK AO2 SNE18 P0000 T10111050
KDSV 101154Z AUTO 30005KT 8SM -SN OVC023 M01/M05 A2981 RMK AO2 SNE1058B53 SLP111 P0000 60000 T10111050 11006 21028 53014
KDSV 101054Z AUTO 00000KT 7SM -SN OVC026 M01/M05 A2979 RMK AO2 SNB0956 SLP104 P0000 T10111050
KDSV 100954Z AUTO 00000KT 9SM BKN028 OVC042 M01/M06 A2978 RMK AO2 SNE13B19E52 SLP100 P0000 T10111061
KDSV 100947Z AUTO 00000KT 8SM -SN BKN030 OVC042 M01/M06 A2978 RMK AO2 SNE13B19 P0000 T10111061
KDSV 100916Z AUTO 27004KT 9SM BKN028 OVC035 M01/M07 A2977 RMK AO2 SNE13 P0000 T10111067
KDSV 100909Z AUTO 00000KT 9SM -SN BKN030 OVC038 M01/M07 A2977 RMK AO2 P0000 T10111067
KDSV 100854Z AUTO 00000KT 9SM -SN BKN029 OVC036 M01/M07 A2977 RMK AO2 SNB38 SLP096 P0000 60000 T10111072 51004
KDSV 100849Z AUTO 00000KT 9SM -SN BKN029 OVC036 M01/M07 A2977 RMK AO2 SNB38 P0000
KDSV 100754Z AUTO 05003KT 10SM BKN035 BKN048 OVC060 M01/M08 A2976 RMK AO2 SLP094 T10111078
KDSV 100654Z AUTO 00000KT 10SM FEW032 BKN039 OVC055 M02/M08 A2976 RMK AO2 SLP092 T10221078
KDSV 100554Z AUTO 00000KT 10SM OVC037 M03/M07 A2975 RMK AO2 SLP092 T10281072 11022 21039 50000
KDSV 100454Z AUTO 00000KT 10SM BKN048 OVC060 M03/M08 A2976 RMK AO2 SLP092 T10281078 400331061
KDSV 100354Z AUTO 00000KT 10SM BKN090 M03/M08 A2976 RMK AO2 SLP094 T10281083
KDSV 100254Z AUTO 00000KT 10SM OVC080 M03/M08 A2975 RMK AO2 SLP093 T10281078 50001
KDSV 100154Z AUTO 00000KT 10SM FEW120 M03/M09 A2976 RMK AO2 SLP094 T10281089